createdAt,value
2017-09-17T00:01:25.137Z,13.70
2017-09-17T00:03:51.675Z,14.10
2017-09-17T00:06:18.091Z,14.10
2017-09-17T00:08:44.436Z,12.63
2017-09-17T00:11:10.871Z,13.30
2017-09-17T00:13:37.408Z,13.10
2017-09-17T00:16:03.844Z,14.10
2017-09-17T00:18:30.996Z,12.60
2017-09-17T00:20:57.430Z,13.00
2017-09-17T00:23:23.865Z,12.53
2017-09-17T00:25:50.301Z,12.80
2017-09-17T00:28:16.737Z,13.80
2017-09-17T00:30:43.170Z,12.57
2017-09-17T00:33:09.607Z,14.07
2017-09-17T00:35:36.757Z,13.40
2017-09-17T00:38:03.192Z,13.10
2017-09-17T00:40:29.626Z,12.83
2017-09-17T00:42:56.132Z,13.63
2017-09-17T00:45:22.598Z,12.73
2017-09-17T00:47:48.943Z,13.67
2017-09-17T00:50:15.365Z,13.93
2017-09-17T00:52:42.633Z,13.93
2017-09-17T00:55:09.055Z,13.50
2017-09-17T00:57:35.489Z,12.90
2017-09-17T01:00:01.882Z,15.57
2017-09-17T01:02:28.310Z,12.00
2017-09-17T01:04:54.692Z,10.40
2017-09-17T01:07:21.127Z,13.67
2017-09-17T01:09:48.336Z,13.60
2017-09-17T01:12:14.866Z,12.97
2017-09-17T01:14:41.354Z,13.30
2017-09-17T01:17:07.788Z,12.93
2017-09-17T01:19:34.224Z,12.60
2017-09-17T01:22:00.620Z,12.27
2017-09-17T01:24:26.991Z,13.30
2017-09-17T01:26:54.269Z,12.53
2017-09-17T01:29:20.734Z,12.87
2017-09-17T01:31:47.186Z,12.33
2017-09-17T01:34:13.653Z,11.80
2017-09-17T01:36:40.087Z,12.20
2017-09-17T01:39:06.522Z,11.53
2017-09-17T01:41:32.958Z,12.67
2017-09-17T01:44:00.109Z,12.97
2017-09-17T01:46:26.543Z,13.20
2017-09-17T01:48:52.961Z,13.53
2017-09-17T01:51:19.403Z,13.20
2017-09-17T01:53:45.950Z,12.50
2017-09-17T01:56:12.339Z,13.37
2017-09-17T01:58:38.723Z,13.57
2017-09-17T02:01:05.971Z,12.60
2017-09-17T02:03:32.509Z,12.50
2017-09-17T02:05:58.943Z,12.30
2017-09-17T02:08:25.378Z,12.77
2017-09-17T02:10:51.814Z,13.00
2017-09-17T02:13:18.299Z,12.93
2017-09-17T02:15:44.780Z,12.67
2017-09-17T02:18:11.938Z,13.10
2017-09-17T02:20:38.322Z,12.37
2017-09-17T02:23:04.783Z,12.53
2017-09-17T02:25:31.225Z,13.20
2017-09-17T02:27:57.669Z,12.07
2017-09-17T02:30:24.110Z,12.90
2017-09-17T02:32:50.629Z,12.23
2017-09-17T02:35:17.698Z,12.90
2017-09-17T02:37:44.151Z,13.13
2017-09-17T02:40:10.568Z,13.13
2017-09-17T02:42:37.003Z,14.47
2017-09-17T02:45:03.441Z,13.97
2017-09-17T02:47:29.873Z,13.67
2017-09-17T02:49:56.254Z,13.60
2017-09-17T02:52:23.466Z,13.80
2017-09-17T02:54:49.896Z,13.20
2017-09-17T02:57:16.274Z,13.60
2017-09-17T02:59:42.670Z,13.87
2017-09-17T03:02:09.102Z,12.30
2017-09-17T03:04:35.634Z,13.90
2017-09-17T03:07:02.069Z,13.50
2017-09-17T03:09:29.167Z,13.60
2017-09-17T03:11:55.637Z,13.57
2017-09-17T03:14:22.195Z,13.90
2017-09-17T03:16:48.628Z,13.60
2017-09-17T03:19:15.166Z,14.57
2017-09-17T03:21:41.703Z,13.00
2017-09-17T03:24:08.225Z,13.90
2017-09-17T03:26:35.289Z,12.70
2017-09-17T03:29:01.724Z,12.70
2017-09-17T03:31:28.158Z,12.70
2017-09-17T03:33:54.696Z,13.50
2017-09-17T03:36:21.080Z,13.33
2017-09-17T03:38:47.515Z,14.40
2017-09-17T03:41:14.001Z,13.47
2017-09-17T03:43:40.538Z,13.90
2017-09-17T03:46:06.973Z,13.40
2017-09-17T03:48:33.408Z,13.77
2017-09-17T03:50:59.846Z,13.10
2017-09-17T03:53:26.333Z,13.20
2017-09-17T03:55:52.816Z,12.80
2017-09-17T03:58:19.251Z,12.30
2017-09-17T04:00:46.391Z,13.53
2017-09-17T04:03:12.939Z,14.07
2017-09-17T04:05:39.378Z,12.97
2017-09-17T04:08:05.811Z,13.30
2017-09-17T04:10:32.248Z,13.47
2017-09-17T04:12:58.782Z,14.10
2017-09-17T04:15:25.216Z,12.67
2017-09-17T04:17:52.471Z,13.40
2017-09-17T04:20:18.904Z,13.60
2017-09-17T04:22:45.442Z,12.57
2017-09-17T04:25:11.878Z,14.10
2017-09-17T04:27:38.258Z,14.27
2017-09-17T04:30:04.644Z,13.90
2017-09-17T04:32:30.994Z,13.07
2017-09-17T04:34:58.232Z,12.93
2017-09-17T04:37:24.668Z,12.30
2017-09-17T04:39:51.023Z,12.90
2017-09-17T04:42:17.434Z,13.30
2017-09-17T04:44:43.819Z,13.30
2017-09-17T04:47:10.255Z,12.20
2017-09-17T04:49:36.636Z,11.50
2017-09-17T04:52:03.890Z,12.93
2017-09-17T04:54:30.379Z,12.43
2017-09-17T04:56:56.847Z,13.20
2017-09-17T04:59:23.302Z,12.97
2017-09-17T05:01:49.732Z,13.17
2017-09-17T05:04:16.371Z,13.20
2017-09-17T05:06:42.809Z,12.73
2017-09-17T05:09:09.958Z,13.10
2017-09-17T05:11:36.394Z,14.23
2017-09-17T05:14:02.931Z,15.50
2017-09-17T05:16:29.366Z,16.30
2017-09-17T05:18:55.801Z,15.10
2017-09-17T05:21:22.235Z,15.10
2017-09-17T05:23:48.669Z,12.90
2017-09-17T05:26:15.821Z,13.30
2017-09-17T05:28:42.257Z,12.50
2017-09-17T05:31:08.692Z,13.70
2017-09-17T05:33:35.331Z,12.90
2017-09-17T05:36:01.767Z,12.77
2017-09-17T05:38:28.202Z,12.60
2017-09-17T05:40:54.636Z,11.93
2017-09-17T05:43:21.983Z,12.10
2017-09-17T05:45:48.428Z,12.93
2017-09-17T05:48:14.966Z,12.37
2017-09-17T05:50:41.400Z,12.63
2017-09-17T05:53:07.937Z,11.80
2017-09-17T05:55:34.376Z,11.57
2017-09-17T05:58:00.807Z,11.77
2017-09-17T06:00:27.958Z,11.90
2017-09-17T06:02:54.501Z,11.23
2017-09-17T06:05:20.917Z,10.77
2017-09-17T06:07:47.307Z,12.17
2017-09-17T06:10:13.841Z,10.87
2017-09-17T06:12:40.295Z,11.30
2017-09-17T06:15:06.764Z,11.03
2017-09-17T06:17:33.874Z,12.40
2017-09-17T06:20:00.360Z,12.70
2017-09-17T06:22:26.794Z,12.07
2017-09-17T06:24:53.229Z,12.50
2017-09-17T06:27:19.669Z,12.37
2017-09-17T06:29:46.099Z,12.33
2017-09-17T06:32:12.534Z,11.30
2017-09-17T06:34:39.738Z,11.40
2017-09-17T06:37:06.224Z,10.90
2017-09-17T06:39:32.658Z,11.33
2017-09-17T06:41:59.093Z,11.93
2017-09-17T06:44:25.631Z,11.90
2017-09-17T06:46:52.064Z,12.50
2017-09-17T06:49:18.602Z,11.93
2017-09-17T06:51:45.754Z,11.40
2017-09-17T06:54:12.238Z,10.50
2017-09-17T06:56:38.616Z,12.00
2017-09-17T06:59:05.059Z,11.57
2017-09-17T07:01:31.477Z,12.13
2017-09-17T07:03:58.031Z,11.87
2017-09-17T07:06:24.465Z,10.80
2017-09-17T07:08:51.606Z,10.97
2017-09-17T07:11:18.053Z,11.50
2017-09-17T07:13:44.590Z,11.13
2017-09-17T07:16:11.024Z,10.67
2017-09-17T07:18:37.461Z,9.73
2017-09-17T07:21:03.907Z,9.43
2017-09-17T07:23:30.431Z,11.33
2017-09-17T07:25:57.582Z,11.43
2017-09-17T07:28:24.019Z,14.67
2017-09-17T07:30:50.399Z,15.27
2017-09-17T07:33:16.889Z,17.70
2017-09-17T07:35:43.323Z,19.10
2017-09-17T07:38:09.758Z,18.03
2017-09-17T07:40:36.196Z,17.07
2017-09-17T07:43:03.345Z,16.67
2017-09-17T07:45:29.781Z,17.03
2017-09-17T07:47:56.215Z,15.60
2017-09-17T08:05:31.570Z,11.40
2017-09-17T08:07:58.723Z,11.97
2017-09-17T08:10:25.157Z,12.23
2017-09-17T08:12:51.694Z,10.60
2017-09-17T08:25:24.203Z,10.50
2017-09-17T08:27:50.705Z,10.80
2017-09-17T08:30:17.118Z,10.60
2017-09-17T08:32:43.656Z,9.90
2017-09-17T08:35:10.043Z,10.47
2017-09-17T08:37:36.528Z,10.33
2017-09-17T08:40:02.959Z,10.50
2017-09-17T08:42:29.339Z,10.43
2017-09-17T08:44:55.827Z,9.90
2017-09-17T08:47:22.203Z,9.10
2017-09-17T08:49:48.591Z,10.07
2017-09-17T08:52:14.929Z,9.50
2017-09-17T08:54:41.465Z,9.70
2017-09-17T08:57:08.002Z,9.70
2017-09-17T08:59:34.539Z,9.57
2017-09-17T09:02:01.692Z,9.70
2017-09-17T09:04:29.335Z,9.20
2017-09-17T09:06:55.893Z,8.30
2017-09-17T09:09:22.637Z,9.07
2017-09-17T09:11:49.118Z,8.50
2017-09-17T09:14:15.607Z,9.10
2017-09-17T09:16:42.042Z,8.33
2017-09-17T09:19:08.460Z,7.80
2017-09-17T09:21:34.902Z,6.90
2017-09-17T09:24:01.961Z,7.30
2017-09-17T09:26:28.363Z,7.87
2017-09-17T09:28:54.831Z,7.10
2017-09-17T09:31:21.266Z,6.90
2017-09-17T09:33:47.794Z,7.07
2017-09-17T09:36:17.583Z,7.20
2017-09-17T09:41:18.228Z,7.20
2017-09-17T09:43:44.706Z,6.50
2017-09-17T09:46:11.138Z,6.90
2017-09-17T09:48:39.829Z,6.83
2017-09-17T09:51:07.495Z,6.40
2017-09-17T09:53:34.027Z,6.70
2017-09-17T09:56:00.463Z,6.90
2017-09-17T09:58:28.157Z,6.50
2017-09-17T10:00:54.766Z,6.37
2017-09-17T10:03:21.304Z,6.57
2017-09-17T10:08:29.534Z,6.37
2017-09-17T10:10:55.969Z,5.77
2017-09-17T10:13:24.146Z,6.50
2017-09-17T10:15:51.202Z,6.80
2017-09-17T10:18:17.628Z,7.00
2017-09-17T10:20:44.069Z,6.30
2017-09-17T10:23:10.600Z,5.90
2017-09-17T10:25:37.022Z,6.13
2017-09-17T10:28:05.612Z,5.90
2017-09-17T10:30:33.309Z,6.00
2017-09-17T10:33:02.958Z,6.17
2017-09-17T10:35:29.482Z,6.10
2017-09-17T10:37:55.969Z,6.13
2017-09-17T10:40:22.580Z,6.07
2017-09-17T10:42:49.146Z,5.73
2017-09-17T10:45:17.425Z,5.90
2017-09-17T10:47:45.396Z,5.63
2017-09-17T10:50:11.932Z,5.33
2017-09-17T10:52:38.470Z,4.90
2017-09-17T10:55:04.905Z,5.40
2017-09-17T10:57:32.772Z,5.23
2017-09-17T10:59:59.309Z,5.97
2017-09-17T11:02:25.746Z,5.10
2017-09-17T11:04:52.282Z,5.30
2017-09-17T11:07:19.228Z,5.10
2017-09-17T11:09:45.668Z,5.33
2017-09-17T11:12:12.099Z,5.23
2017-09-17T11:14:38.637Z,5.40
2017-09-17T11:17:06.607Z,6.17
2017-09-17T11:22:09.511Z,4.97
2017-09-17T11:24:37.157Z,4.37
2017-09-17T11:27:03.700Z,4.70
2017-09-17T11:29:30.897Z,4.50
2017-09-17T11:31:57.508Z,4.37
2017-09-17T11:34:24.045Z,4.13
2017-09-17T11:36:51.282Z,4.20
2017-09-17T11:39:20.016Z,3.60
2017-09-17T11:41:47.135Z,3.87
2017-09-17T11:44:15.622Z,3.67
2017-09-17T11:49:15.966Z,3.50
2017-09-17T11:51:42.501Z,3.43
2017-09-17T11:54:09.030Z,3.40
2017-09-17T11:56:35.575Z,3.40
2017-09-17T11:59:03.853Z,3.60
2017-09-17T12:01:30.234Z,3.50
2017-09-17T12:03:59.796Z,3.00
2017-09-17T12:06:26.184Z,2.87
2017-09-17T12:08:52.666Z,3.20
2017-09-17T12:11:20.331Z,2.90
2017-09-17T12:13:46.866Z,3.28
2017-09-17T12:16:13.301Z,2.97
2017-09-17T12:18:40.639Z,2.83
2017-09-17T12:21:10.428Z,2.80
2017-09-17T12:23:37.679Z,2.70
2017-09-17T12:26:04.210Z,2.80
2017-09-17T12:28:30.698Z,2.90
2017-09-17T12:30:57.241Z,2.50
2017-09-17T12:33:23.979Z,2.67
2017-09-17T12:35:55.164Z,2.62
2017-09-17T12:38:21.661Z,2.37
2017-09-17T12:40:51.269Z,2.60
2017-09-17T12:43:17.811Z,2.62
2017-09-17T12:45:44.188Z,2.20
2017-09-17T12:48:10.575Z,2.17
2017-09-17T12:50:37.630Z,2.40
2017-09-17T12:53:04.163Z,2.20
2017-09-17T12:55:33.053Z,2.25
2017-09-17T12:57:59.679Z,2.10
2017-09-17T13:00:26.129Z,1.92
2017-09-17T13:02:52.665Z,2.10
2017-09-17T13:05:19.101Z,2.28
2017-09-17T13:07:45.549Z,2.40
2017-09-17T13:10:12.597Z,2.30
2017-09-17T13:15:14.732Z,2.40
2017-09-17T13:17:41.312Z,4.20
2017-09-17T13:20:07.746Z,2.60
2017-09-17T13:22:36.565Z,5.40
2017-09-17T13:27:34.401Z,3.33
2017-09-17T13:30:00.873Z,5.47
2017-09-17T13:32:28.189Z,3.00
2017-09-17T13:34:55.353Z,4.25
2017-09-17T13:37:21.802Z,7.45
2017-09-17T13:39:48.187Z,4.68
2017-09-17T13:42:14.534Z,6.25
2017-09-17T13:44:41.003Z,3.40
2017-09-17T13:47:07.541Z,3.25
2017-09-17T13:49:34.082Z,3.10
2017-09-17T13:52:00.616Z,3.10
2017-09-17T13:54:28.083Z,3.00
2017-09-17T13:56:54.612Z,3.33
2017-09-17T13:59:22.214Z,2.85
2017-09-17T14:01:49.037Z,3.03
2017-09-17T14:04:15.555Z,4.10
2017-09-17T14:06:42.604Z,6.50
2017-09-17T14:09:10.066Z,3.00
2017-09-17T14:11:36.941Z,2.90
2017-09-17T14:14:03.424Z,2.95
2017-09-17T14:16:29.880Z,3.08
2017-09-17T14:18:56.314Z,2.92
2017-09-17T14:21:22.750Z,3.67
2017-09-17T14:23:49.287Z,3.15
2017-09-17T14:26:15.722Z,3.28
2017-09-17T14:28:42.157Z,3.15
2017-09-17T14:31:08.593Z,3.20
2017-09-17T14:33:35.846Z,4.35
2017-09-17T14:36:02.383Z,4.25
2017-09-17T14:38:28.818Z,5.10
2017-09-17T14:40:55.255Z,5.53
2017-09-17T14:43:21.792Z,5.83
2017-09-17T14:45:48.174Z,6.43
2017-09-17T14:48:14.559Z,6.50
2017-09-17T14:50:41.812Z,8.73
2017-09-17T14:53:08.349Z,5.37
2017-09-17T14:55:34.784Z,6.20
2017-09-17T14:58:01.321Z,4.70
2017-09-17T15:00:27.757Z,5.10
2017-09-17T15:02:54.293Z,4.80
2017-09-17T15:05:20.728Z,4.90
2017-09-17T15:07:47.878Z,5.50
2017-09-17T15:10:14.315Z,5.80
2017-09-17T15:12:40.839Z,6.13
2017-09-17T15:15:07.294Z,5.80
2017-09-17T15:17:33.725Z,5.80
2017-09-17T15:20:00.106Z,6.10
2017-09-17T15:22:26.594Z,6.07
2017-09-17T15:24:53.744Z,5.67
2017-09-17T15:27:20.127Z,5.93
2017-09-17T15:29:46.512Z,6.50
2017-09-17T15:32:12.911Z,7.53
2017-09-17T15:34:39.356Z,6.17
2017-09-17T15:37:05.799Z,7.10
2017-09-17T15:39:32.194Z,6.77
2017-09-17T15:41:59.516Z,6.53
2017-09-17T15:44:26.027Z,7.37
2017-09-17T15:46:52.477Z,11.53
2017-09-17T15:49:18.911Z,9.37
2017-09-17T15:51:45.346Z,8.43
2017-09-17T15:54:11.885Z,8.00
2017-09-17T15:56:38.320Z,8.57
2017-09-17T15:59:05.573Z,8.50
2017-09-17T16:01:32.007Z,9.00
2017-09-17T16:03:58.545Z,8.10
2017-09-17T16:06:24.980Z,7.90
2017-09-17T16:08:51.467Z,9.97
2017-09-17T16:11:17.952Z,8.77
2017-09-17T16:13:44.489Z,8.90
2017-09-17T16:16:11.641Z,9.50
2017-09-17T16:18:38.077Z,9.83
2017-09-17T16:21:04.520Z,11.70
2017-09-17T16:23:31.049Z,10.53
2017-09-17T16:25:57.484Z,11.50
2017-09-17T16:28:23.880Z,10.47
2017-09-17T16:30:50.355Z,12.10
2017-09-17T16:33:17.505Z,11.67
2017-09-17T16:35:43.940Z,12.40
2017-09-17T16:38:10.375Z,11.30
2017-09-17T16:40:36.810Z,11.30
2017-09-17T16:43:03.353Z,11.03
2017-09-17T16:45:29.782Z,11.37
2017-09-17T16:47:56.181Z,10.20
2017-09-17T16:50:23.476Z,11.00
2017-09-17T16:52:50.008Z,10.87
2017-09-17T16:55:16.443Z,10.03
2017-09-17T16:57:42.878Z,10.67
2017-09-17T17:00:09.313Z,9.70
2017-09-17T17:02:35.851Z,15.83
2017-09-17T17:05:02.286Z,15.87
2017-09-17T17:07:29.437Z,13.60
2017-09-17T17:09:55.877Z,11.60
2017-09-17T17:12:22.307Z,9.93
2017-09-17T17:14:48.744Z,9.47
2017-09-17T17:17:15.219Z,9.40
2017-09-17T17:19:41.714Z,10.33
2017-09-17T17:22:08.104Z,10.07
2017-09-17T17:24:35.301Z,11.33
2017-09-17T17:27:01.719Z,9.93
2017-09-17T17:29:28.122Z,10.27
2017-09-17T17:31:54.501Z,11.27
2017-09-17T17:34:21.040Z,10.60
2017-09-17T17:36:47.475Z,10.90
2017-09-17T17:39:13.911Z,10.13
2017-09-17T17:41:41.061Z,11.50
2017-09-17T17:44:07.598Z,10.37
2017-09-17T17:46:34.238Z,10.93
2017-09-17T17:49:00.677Z,10.57
2017-09-17T17:51:27.195Z,10.47
2017-09-17T17:53:53.749Z,9.80
2017-09-17T17:56:20.135Z,10.73
2017-09-17T17:58:47.335Z,9.60
2017-09-17T18:01:13.770Z,10.47
2017-09-17T18:03:40.308Z,10.53
2017-09-17T18:06:06.734Z,9.80
2017-09-17T18:08:33.178Z,10.30
2017-09-17T18:10:59.611Z,9.97
2017-09-17T18:13:26.097Z,9.40
2017-09-17T18:15:53.176Z,9.80
2017-09-17T18:18:19.633Z,9.30
2017-09-17T18:20:46.068Z,9.93
2017-09-17T18:23:12.610Z,10.10
2017-09-17T18:25:39.042Z,8.70
2017-09-17T18:28:05.476Z,9.77
2017-09-17T18:30:31.885Z,9.70
2017-09-17T18:32:59.062Z,9.83
2017-09-17T18:35:25.498Z,9.90
2017-09-17T18:37:51.934Z,9.10
2017-09-17T18:40:18.370Z,10.20
2017-09-17T18:42:44.905Z,9.07
2017-09-17T18:45:11.341Z,9.67
2017-09-17T18:47:37.807Z,9.87
2017-09-17T18:50:04.926Z,9.17
2017-09-17T18:52:31.463Z,9.60
2017-09-17T18:54:57.900Z,9.73
2017-09-17T18:57:24.332Z,9.17
2017-09-17T18:59:50.709Z,8.80
2017-09-17T19:02:17.203Z,9.37
2017-09-17T19:04:43.637Z,9.90
2017-09-17T19:07:10.789Z,8.90
2017-09-17T19:09:37.226Z,9.43
2017-09-17T19:12:03.659Z,10.00
2017-09-17T19:14:30.142Z,9.10
2017-09-17T19:16:56.528Z,9.17
2017-09-17T19:19:22.964Z,9.87
2017-09-17T19:21:49.500Z,9.87
2017-09-17T19:24:16.653Z,9.70
2017-09-17T19:26:43.088Z,9.57
2017-09-17T19:29:09.522Z,9.40
2017-09-17T19:31:35.957Z,9.60
2017-09-17T19:34:02.494Z,9.57
2017-09-17T19:36:28.929Z,10.80
2017-09-17T19:38:55.365Z,10.10
2017-09-17T19:41:22.517Z,10.27
2017-09-17T19:43:49.054Z,10.33
2017-09-17T19:46:15.386Z,10.83
2017-09-17T19:48:41.823Z,10.83
2017-09-17T19:51:08.232Z,10.30
2017-09-17T19:53:34.793Z,11.53
2017-09-17T19:56:01.176Z,10.03
2017-09-17T19:58:28.482Z,10.30
2017-09-17T20:00:54.879Z,11.10
2017-09-17T20:03:21.249Z,12.10
2017-09-17T20:05:47.685Z,10.80
2017-09-17T20:08:14.072Z,10.67
2017-09-17T20:10:40.554Z,11.53
2017-09-17T20:13:07.092Z,10.90
2017-09-17T20:15:34.090Z,11.30
2017-09-17T20:18:00.526Z,11.37
2017-09-17T20:20:27.001Z,11.30
2017-09-17T20:22:53.548Z,12.37
2017-09-17T20:25:19.983Z,11.70
2017-09-17T20:27:46.418Z,11.50
2017-09-17T20:30:12.853Z,11.70
2017-09-17T20:32:40.055Z,11.53
2017-09-17T20:35:06.543Z,12.70
2017-09-17T20:37:32.976Z,12.77
2017-09-17T20:39:59.411Z,12.43
2017-09-17T20:42:25.849Z,11.90
2017-09-17T20:44:52.284Z,13.10
2017-09-17T20:47:18.716Z,11.53
2017-09-17T20:49:45.868Z,12.50
2017-09-17T20:52:12.302Z,12.10
2017-09-17T20:54:38.737Z,12.30
2017-09-17T20:57:05.169Z,12.70
2017-09-17T20:59:31.608Z,11.57
2017-09-17T21:01:58.046Z,12.17
2017-09-17T21:04:24.581Z,12.10
2017-09-17T21:06:51.629Z,12.00
2017-09-17T21:09:18.064Z,12.77
2017-09-17T21:11:44.499Z,12.53
2017-09-17T21:14:11.039Z,13.10
2017-09-17T21:16:37.470Z,13.50
2017-09-17T21:19:03.905Z,13.87
2017-09-17T21:21:30.341Z,13.70
2017-09-17T21:23:57.592Z,12.60
2017-09-17T21:26:24.031Z,13.23
2017-09-17T21:28:50.467Z,13.37
2017-09-17T21:31:16.899Z,13.43
2017-09-17T21:33:43.446Z,13.07
2017-09-17T21:36:09.873Z,12.57
2017-09-17T21:38:36.307Z,12.87
2017-09-17T21:41:03.562Z,12.90
2017-09-17T21:43:30.050Z,12.37
2017-09-17T21:45:56.528Z,12.80
2017-09-17T21:48:22.969Z,13.17
2017-09-17T21:50:49.392Z,12.83
2017-09-17T21:53:15.932Z,13.10
2017-09-17T21:55:42.380Z,12.23
2017-09-17T21:58:09.517Z,13.67
2017-09-17T22:00:35.962Z,14.83
2017-09-17T22:03:02.499Z,13.07
2017-09-17T22:05:29.037Z,13.70
2017-09-17T22:07:55.471Z,13.80
2017-09-17T22:10:21.906Z,13.90
2017-09-17T22:12:48.443Z,14.10
2017-09-17T22:15:15.468Z,13.90
2017-09-17T22:17:41.928Z,13.93
2017-09-17T22:20:08.353Z,15.23
2017-09-17T22:22:34.900Z,21.97
2017-09-17T22:25:01.335Z,22.90
2017-09-17T22:27:27.770Z,27.20
2017-09-17T22:29:54.206Z,33.10
2017-09-17T22:32:21.254Z,35.50
2017-09-17T22:34:47.661Z,36.50
2017-09-17T22:37:14.070Z,37.30
2017-09-17T22:39:40.458Z,35.17
2017-09-17T22:42:06.891Z,33.70
2017-09-17T22:44:33.428Z,32.40
2017-09-17T22:46:59.867Z,31.00
2017-09-17T22:49:27.015Z,28.53
2017-09-17T22:51:53.450Z,26.37
2017-09-17T22:54:19.980Z,26.83
2017-09-17T22:56:46.422Z,25.50
2017-09-17T22:59:12.861Z,24.20
2017-09-17T23:01:39.295Z,24.13
2017-09-17T23:04:05.831Z,24.53
2017-09-17T23:06:32.982Z,24.20
2017-09-17T23:08:59.416Z,23.43
2017-09-17T23:11:25.851Z,22.97
2017-09-17T23:13:52.286Z,22.37
2017-09-17T23:16:18.723Z,21.90
2017-09-17T23:18:45.260Z,21.93
2017-09-17T23:21:11.674Z,21.23
2017-09-17T23:23:38.949Z,21.20
2017-09-17T23:26:05.486Z,20.10
2017-09-17T23:28:31.866Z,19.60
2017-09-17T23:30:58.355Z,18.20
2017-09-17T23:33:24.891Z,18.80
2017-09-17T23:35:51.326Z,19.53
2017-09-17T23:38:17.761Z,19.50
2017-09-17T23:40:44.918Z,18.90
2017-09-17T23:43:11.450Z,18.77
2017-09-17T23:45:37.885Z,17.97
2017-09-17T23:48:04.321Z,18.30
2017-09-17T23:50:30.755Z,18.43
2017-09-17T23:52:57.292Z,18.47
2017-09-17T23:55:23.730Z,19.10
2017-09-17T23:57:50.777Z,18.70
